sensor_id;sensor_type;location;lat;lon;timestamp;P1;durP1;ratioP1;P2;durP2;ratioP2
33794;SDS011;51430;52.242;21.118;2024-02-16T00:00:14;23.90;;;18.00;;
33794;SDS011;51430;52.242;21.118;2024-02-16T00:03:04;21.80;;;17.70;;
33794;SDS011;51430;52.242;21.118;2024-02-16T00:05:32;23.40;;;18.00;;
33794;SDS011;51430;52.242;21.118;2024-02-16T00:08:00;21.60;;;18.30;;
33794;SDS011;51430;52.242;21.118;2024-02-16T00:10:30;21.90;;;17.80;;
33794;SDS011;51430;52.242;21.118;2024-02-16T00:12:59;21.80;;;17.80;;
33794;SDS011;51430;52.242;21.118;2024-02-16T00:15:27;22.00;;;17.80;;
33794;SDS011;51430;52.242;21.118;2024-02-16T00:17:56;21.20;;;16.90;;
33794;SDS011;51430;52.242;21.118;2024-02-16T00:20:24;23.40;;;18.10;;
33794;SDS011;51430;52.242;21.118;2024-02-16T00:22:52;20.20;;;16.80;;
33794;SDS011;51430;52.242;21.118;2024-02-16T00:25:20;21.50;;;17.80;;
33794;SDS011;51430;52.242;21.118;2024-02-16T00:27:48;20.40;;;16.10;;
33794;SDS011;51430;52.242;21.118;2024-02-16T00:30:17;21.00;;;16.60;;
33794;SDS011;51430;52.242;21.118;2024-02-16T00:32:45;22.00;;;17.10;;
33794;SDS011;51430;52.242;21.118;2024-02-16T00:35:16;22.10;;;17.10;;
33794;SDS011;51430;52.242;21.118;2024-02-16T00:37:45;21.00;;;16.50;;
33794;SDS011;51430;52.242;21.118;2024-02-16T00:40:13;18.60;;;15.70;;
33794;SDS011;51430;52.242;21.118;2024-02-16T00:42:43;19.00;;;15.70;;
33794;SDS011;51430;52.242;21.118;2024-02-16T00:45:12;19.50;;;16.10;;
33794;SDS011;51430;52.242;21.118;2024-02-16T00:47:40;20.60;;;15.90;;
33794;SDS011;51430;52.242;21.118;2024-02-16T00:50:11;19.30;;;14.80;;
33794;SDS011;51430;52.242;21.118;2024-02-16T00:52:40;18.70;;;15.10;;
33794;SDS011;51430;52.242;21.118;2024-02-16T00:55:08;17.10;;;14.10;;
33794;SDS011;51430;52.242;21.118;2024-02-16T00:57:37;16.80;;;13.70;;
33794;SDS011;51430;52.242;21.118;2024-02-16T01:00:05;19.10;;;13.80;;
33794;SDS011;51430;52.242;21.118;2024-02-16T01:02:34;17.30;;;13.60;;
33794;SDS011;51430;52.242;21.118;2024-02-16T01:05:03;17.20;;;14.00;;
33794;SDS011;51430;52.242;21.118;2024-02-16T01:07:34;16.20;;;12.90;;
33794;SDS011;51430;52.242;21.118;2024-02-16T01:10:03;16.00;;;13.40;;
33794;SDS011;51430;52.242;21.118;2024-02-16T01:12:32;18.40;;;13.10;;
33794;SDS011;51430;52.242;21.118;2024-02-16T01:15:00;16.00;;;12.40;;
33794;SDS011;51430;52.242;21.118;2024-02-16T01:17:29;15.00;;;12.40;;
33794;SDS011;51430;52.242;21.118;2024-02-16T01:19:57;15.40;;;12.30;;
33794;SDS011;51430;52.242;21.118;2024-02-16T01:22:26;14.40;;;11.90;;
33794;SDS011;51430;52.242;21.118;2024-02-16T01:24:57;15.00;;;11.90;;
33794;SDS011;51430;52.242;21.118;2024-02-16T01:27:25;14.90;;;12.20;;
33794;SDS011;51430;52.242;21.118;2024-02-16T01:29:55;13.60;;;11.20;;
33794;SDS011;51430;52.242;21.118;2024-02-16T01:32:23;15.20;;;12.00;;
33794;SDS011;51430;52.242;21.118;2024-02-16T01:34:51;13.60;;;11.50;;
33794;SDS011;51430;52.242;21.118;2024-02-16T01:37:19;13.10;;;11.10;;
33794;SDS011;51430;52.242;21.118;2024-02-16T01:39:47;14.90;;;11.40;;
33794;SDS011;51430;52.242;21.118;2024-02-16T01:42:15;13.90;;;11.10;;
33794;SDS011;51430;52.242;21.118;2024-02-16T01:44:44;14.00;;;10.80;;
33794;SDS011;51430;52.242;21.118;2024-02-16T01:47:12;12.80;;;10.40;;
33794;SDS011;51430;52.242;21.118;2024-02-16T01:49:40;13.00;;;10.50;;
33794;SDS011;51430;52.242;21.118;2024-02-16T01:52:08;13.20;;;10.60;;
33794;SDS011;51430;52.242;21.118;2024-02-16T01:54:37;13.00;;;10.50;;
33794;SDS011;51430;52.242;21.118;2024-02-16T01:57:05;14.70;;;10.40;;
33794;SDS011;51430;52.242;21.118;2024-02-16T01:59:35;11.60;;;10.10;;
33794;SDS011;51430;52.242;21.118;2024-02-16T02:02:04;10.70;;;9.50;;
33794;SDS011;51430;52.242;21.118;2024-02-16T02:04:32;11.90;;;10.40;;
33794;SDS011;51430;52.242;21.118;2024-02-16T02:07:10;14.00;;;9.80;;
33794;SDS011;51430;52.242;21.118;2024-02-16T02:09:39;12.40;;;10.00;;
33794;SDS011;51430;52.242;21.118;2024-02-16T02:12:08;11.00;;;9.80;;
33794;SDS011;51430;52.242;21.118;2024-02-16T02:14:37;11.50;;;9.60;;
33794;SDS011;51430;52.242;21.118;2024-02-16T02:17:05;12.90;;;10.10;;
33794;SDS011;51430;52.242;21.118;2024-02-16T02:19:33;11.10;;;9.80;;
33794;SDS011;51430;52.242;21.118;2024-02-16T02:22:02;11.00;;;9.60;;
33794;SDS011;51430;52.242;21.118;2024-02-16T02:24:30;11.30;;;9.50;;
33794;SDS011;51430;52.242;21.118;2024-02-16T02:26:59;11.90;;;9.40;;
33794;SDS011;51430;52.242;21.118;2024-02-16T02:29:27;14.30;;;9.70;;
33794;SDS011;51430;52.242;21.118;2024-02-16T02:31:55;11.70;;;9.50;;
33794;SDS011;51430;52.242;21.118;2024-02-16T02:34:23;11.80;;;9.40;;
33794;SDS011;51430;52.242;21.118;2024-02-16T02:36:51;12.20;;;9.60;;
33794;SDS011;51430;52.242;21.118;2024-02-16T02:39:19;12.20;;;9.50;;
33794;SDS011;51430;52.242;21.118;2024-02-16T02:41:47;11.30;;;9.70;;
33794;SDS011;51430;52.242;21.118;2024-02-16T02:44:15;12.40;;;9.70;;
33794;SDS011;51430;52.242;21.118;2024-02-16T02:46:43;13.00;;;9.90;;
33794;SDS011;51430;52.242;21.118;2024-02-16T02:49:12;12.30;;;9.90;;
33794;SDS011;51430;52.242;21.118;2024-02-16T02:51:40;11.70;;;9.80;;
33794;SDS011;51430;52.242;21.118;2024-02-16T02:54:08;13.00;;;10.00;;
33794;SDS011;51430;52.242;21.118;2024-02-16T02:56:36;12.40;;;10.10;;
33794;SDS011;51430;52.242;21.118;2024-02-16T02:59:04;11.60;;;9.70;;
33794;SDS011;51430;52.242;21.118;2024-02-16T03:01:34;11.30;;;9.80;;
33794;SDS011;51430;52.242;21.118;2024-02-16T03:04:03;11.80;;;10.20;;
33794;SDS011;51430;52.242;21.118;2024-02-16T03:06:32;12.80;;;10.00;;
33794;SDS011;51430;52.242;21.118;2024-02-16T03:09:00;12.90;;;10.00;;
33794;SDS011;51430;52.242;21.118;2024-02-16T03:11:28;12.30;;;9.40;;
33794;SDS011;51430;52.242;21.118;2024-02-16T03:13:56;11.60;;;9.30;;
33794;SDS011;51430;52.242;21.118;2024-02-16T03:16:24;12.80;;;9.90;;
33794;SDS011;51430;52.242;21.118;2024-02-16T03:18:53;11.40;;;9.40;;
33794;SDS011;51430;52.242;21.118;2024-02-16T03:21:22;11.90;;;9.70;;
33794;SDS011;51430;52.242;21.118;2024-02-16T03:23:50;11.90;;;10.40;;
33794;SDS011;51430;52.242;21.118;2024-02-16T03:26:19;11.90;;;9.50;;
33794;SDS011;51430;52.242;21.118;2024-02-16T03:28:47;11.30;;;9.60;;
33794;SDS011;51430;52.242;21.118;2024-02-16T03:31:16;12.50;;;9.60;;
33794;SDS011;51430;52.242;21.118;2024-02-16T03:33:46;13.70;;;10.30;;
33794;SDS011;51430;52.242;21.118;2024-02-16T03:36:14;13.40;;;9.70;;
33794;SDS011;51430;52.242;21.118;2024-02-16T03:38:47;12.60;;;9.80;;
33794;SDS011;51430;52.242;21.118;2024-02-16T03:41:19;11.80;;;10.30;;
33794;SDS011;51430;52.242;21.118;2024-02-16T03:43:49;13.20;;;10.30;;
33794;SDS011;51430;52.242;21.118;2024-02-16T03:49:39;11.40;;;9.10;;
33794;SDS011;51430;52.242;21.118;2024-02-16T03:52:08;14.10;;;9.80;;
33794;SDS011;51430;52.242;21.118;2024-02-16T03:54:36;14.10;;;10.70;;
33794;SDS011;51430;52.242;21.118;2024-02-16T03:57:04;12.80;;;10.30;;
33794;SDS011;51430;52.242;21.118;2024-02-16T03:59:36;14.40;;;10.60;;
33794;SDS011;51430;52.242;21.118;2024-02-16T04:02:06;12.80;;;10.00;;
33794;SDS011;51430;52.242;21.118;2024-02-16T04:04:34;14.20;;;10.40;;
33794;SDS011;51430;52.242;21.118;2024-02-16T04:07:02;13.40;;;10.80;;
33794;SDS011;51430;52.242;21.118;2024-02-16T04:09:31;13.20;;;10.10;;
33794;SDS011;51430;52.242;21.118;2024-02-16T04:12:00;14.00;;;10.90;;
33794;SDS011;51430;52.242;21.118;2024-02-16T04:14:28;15.30;;;10.80;;
33794;SDS011;51430;52.242;21.118;2024-02-16T04:16:57;14.10;;;11.00;;
33794;SDS011;51430;52.242;21.118;2024-02-16T04:19:27;15.10;;;11.70;;
33794;SDS011;51430;52.242;21.118;2024-02-16T04:21:56;15.00;;;11.00;;
33794;SDS011;51430;52.242;21.118;2024-02-16T04:24:27;13.20;;;10.90;;
33794;SDS011;51430;52.242;21.118;2024-02-16T04:26:55;15.20;;;11.30;;
33794;SDS011;51430;52.242;21.118;2024-02-16T04:29:23;15.10;;;11.50;;
33794;SDS011;51430;52.242;21.118;2024-02-16T04:31:51;13.40;;;10.90;;
33794;SDS011;51430;52.242;21.118;2024-02-16T04:34:19;14.50;;;11.30;;
33794;SDS011;51430;52.242;21.118;2024-02-16T04:36:47;17.90;;;11.20;;
33794;SDS011;51430;52.242;21.118;2024-02-16T04:39:15;15.00;;;11.60;;
33794;SDS011;51430;52.242;21.118;2024-02-16T04:41:45;15.80;;;11.60;;
33794;SDS011;51430;52.242;21.118;2024-02-16T04:44:13;14.20;;;11.70;;
33794;SDS011;51430;52.242;21.118;2024-02-16T04:46:41;16.10;;;11.20;;
33794;SDS011;51430;52.242;21.118;2024-02-16T04:49:09;15.40;;;11.40;;
33794;SDS011;51430;52.242;21.118;2024-02-16T04:51:37;13.80;;;11.20;;
33794;SDS011;51430;52.242;21.118;2024-02-16T04:54:07;15.40;;;11.40;;
33794;SDS011;51430;52.242;21.118;2024-02-16T04:56:35;14.10;;;11.10;;
33794;SDS011;51430;52.242;21.118;2024-02-16T04:59:03;13.90;;;11.00;;
33794;SDS011;51430;52.242;21.118;2024-02-16T05:01:31;15.40;;;11.40;;
33794;SDS011;51430;52.242;21.118;2024-02-16T05:03:59;14.60;;;11.00;;
33794;SDS011;51430;52.242;21.118;2024-02-16T05:06:29;16.60;;;10.70;;
33794;SDS011;51430;52.242;21.118;2024-02-16T05:08:58;13.90;;;11.10;;
33794;SDS011;51430;52.242;21.118;2024-02-16T05:11:26;15.60;;;11.20;;
33794;SDS011;51430;52.242;21.118;2024-02-16T05:13:55;15.70;;;11.00;;
33794;SDS011;51430;52.242;21.118;2024-02-16T05:16:25;15.50;;;11.10;;
33794;SDS011;51430;52.242;21.118;2024-02-16T05:18:55;13.50;;;11.00;;
33794;SDS011;51430;52.242;21.118;2024-02-16T05:21:24;14.50;;;11.60;;
33794;SDS011;51430;52.242;21.118;2024-02-16T05:23:52;15.20;;;11.30;;
33794;SDS011;51430;52.242;21.118;2024-02-16T05:26:21;15.00;;;11.40;;
33794;SDS011;51430;52.242;21.118;2024-02-16T05:28:49;15.80;;;11.10;;
33794;SDS011;51430;52.242;21.118;2024-02-16T05:31:17;15.00;;;11.80;;
33794;SDS011;51430;52.242;21.118;2024-02-16T05:33:49;18.00;;;11.60;;
33794;SDS011;51430;52.242;21.118;2024-02-16T05:36:19;16.50;;;11.70;;
33794;SDS011;51430;52.242;21.118;2024-02-16T05:38:48;17.10;;;12.20;;
33794;SDS011;51430;52.242;21.118;2024-02-16T05:41:17;17.10;;;12.50;;
33794;SDS011;51430;52.242;21.118;2024-02-16T05:43:48;15.90;;;12.30;;
33794;SDS011;51430;52.242;21.118;2024-02-16T05:46:18;16.10;;;12.20;;
33794;SDS011;51430;52.242;21.118;2024-02-16T05:48:46;16.00;;;12.40;;
33794;SDS011;51430;52.242;21.118;2024-02-16T05:51:14;18.40;;;12.10;;
33794;SDS011;51430;52.242;21.118;2024-02-16T05:53:42;17.40;;;12.40;;
33794;SDS011;51430;52.242;21.118;2024-02-16T05:56:13;16.60;;;12.10;;
33794;SDS011;51430;52.242;21.118;2024-02-16T05:58:40;18.70;;;12.30;;
33794;SDS011;51430;52.242;21.118;2024-02-16T06:01:09;16.10;;;11.70;;
33794;SDS011;51430;52.242;21.118;2024-02-16T06:03:41;16.60;;;11.90;;
33794;SDS011;51430;52.242;21.118;2024-02-16T06:06:10;16.00;;;12.10;;
33794;SDS011;51430;52.242;21.118;2024-02-16T06:08:38;20.00;;;12.30;;
33794;SDS011;51430;52.242;21.118;2024-02-16T06:11:07;16.50;;;11.70;;
33794;SDS011;51430;52.242;21.118;2024-02-16T06:13:35;18.50;;;11.70;;
33794;SDS011;51430;52.242;21.118;2024-02-16T06:16:06;17.10;;;12.10;;
33794;SDS011;51430;52.242;21.118;2024-02-16T06:18:38;17.30;;;12.10;;
33794;SDS011;51430;52.242;21.118;2024-02-16T06:21:06;15.40;;;11.80;;
33794;SDS011;51430;52.242;21.118;2024-02-16T06:23:35;17.60;;;11.50;;
33794;SDS011;51430;52.242;21.118;2024-02-16T06:26:02;17.50;;;12.10;;
33794;SDS011;51430;52.242;21.118;2024-02-16T06:28:33;16.10;;;11.70;;
33794;SDS011;51430;52.242;21.118;2024-02-16T06:31:04;15.10;;;11.90;;
33794;SDS011;51430;52.242;21.118;2024-02-16T06:33:32;14.90;;;11.80;;
33794;SDS011;51430;52.242;21.118;2024-02-16T06:36:00;18.70;;;12.10;;
33794;SDS011;51430;52.242;21.118;2024-02-16T06:38:28;19.10;;;12.00;;
33794;SDS011;51430;52.242;21.118;2024-02-16T06:40:56;18.00;;;11.60;;
33794;SDS011;51430;52.242;21.118;2024-02-16T06:43:25;18.70;;;12.20;;
33794;SDS011;51430;52.242;21.118;2024-02-16T06:45:53;16.90;;;12.20;;
33794;SDS011;51430;52.242;21.118;2024-02-16T06:48:23;15.90;;;11.70;;
33794;SDS011;51430;52.242;21.118;2024-02-16T06:50:51;14.40;;;12.20;;
33794;SDS011;51430;52.242;21.118;2024-02-16T06:53:19;18.00;;;12.30;;
33794;SDS011;51430;52.242;21.118;2024-02-16T06:55:47;17.40;;;12.10;;
33794;SDS011;51430;52.242;21.118;2024-02-16T06:58:16;17.90;;;12.30;;
33794;SDS011;51430;52.242;21.118;2024-02-16T07:00:43;16.90;;;12.10;;
33794;SDS011;51430;52.242;21.118;2024-02-16T07:03:12;14.90;;;12.40;;
33794;SDS011;51430;52.242;21.118;2024-02-16T07:05:41;18.60;;;11.90;;
33794;SDS011;51430;52.242;21.118;2024-02-16T07:08:09;16.50;;;12.20;;
33794;SDS011;51430;52.242;21.118;2024-02-16T07:13:08;17.60;;;12.70;;
33794;SDS011;51430;52.242;21.118;2024-02-16T07:15:36;17.90;;;12.40;;
33794;SDS011;51430;52.242;21.118;2024-02-16T07:18:06;17.70;;;12.00;;
33794;SDS011;51430;52.242;21.118;2024-02-16T07:20:34;19.20;;;12.00;;
33794;SDS011;51430;52.242;21.118;2024-02-16T07:23:02;18.30;;;12.10;;
33794;SDS011;51430;52.242;21.118;2024-02-16T07:25:30;17.30;;;12.10;;
33794;SDS011;51430;52.242;21.118;2024-02-16T07:27:58;15.40;;;11.90;;
33794;SDS011;51430;52.242;21.118;2024-02-16T07:30:26;15.20;;;11.40;;
33794;SDS011;51430;52.242;21.118;2024-02-16T07:33:06;15.70;;;11.80;;
33794;SDS011;51430;52.242;21.118;2024-02-16T07:35:37;18.70;;;12.20;;
33794;SDS011;51430;52.242;21.118;2024-02-16T07:38:06;17.20;;;11.70;;
33794;SDS011;51430;52.242;21.118;2024-02-16T07:40:35;16.20;;;11.00;;
33794;SDS011;51430;52.242;21.118;2024-02-16T07:43:04;17.20;;;11.30;;
33794;SDS011;51430;52.242;21.118;2024-02-16T07:45:33;16.10;;;11.30;;
33794;SDS011;51430;52.242;21.118;2024-02-16T07:48:02;18.40;;;11.60;;
33794;SDS011;51430;52.242;21.118;2024-02-16T07:50:33;15.60;;;11.60;;
33794;SDS011;51430;52.242;21.118;2024-02-16T07:53:02;14.50;;;10.80;;
33794;SDS011;51430;52.242;21.118;2024-02-16T07:55:30;17.30;;;11.30;;
33794;SDS011;51430;52.242;21.118;2024-02-16T07:57:59;14.30;;;10.30;;
33794;SDS011;51430;52.242;21.118;2024-02-16T08:00:28;14.30;;;11.40;;
33794;SDS011;51430;52.242;21.118;2024-02-16T08:02:56;15.70;;;11.10;;
33794;SDS011;51430;52.242;21.118;2024-02-16T08:05:24;14.90;;;11.00;;
33794;SDS011;51430;52.242;21.118;2024-02-16T08:07:54;14.50;;;10.80;;
33794;SDS011;51430;52.242;21.118;2024-02-16T08:10:23;13.80;;;11.30;;
33794;SDS011;51430;52.242;21.118;2024-02-16T08:12:53;16.30;;;11.60;;
33794;SDS011;51430;52.242;21.118;2024-02-16T08:15:22;18.90;;;11.70;;
33794;SDS011;51430;52.242;21.118;2024-02-16T08:17:52;18.70;;;11.40;;
33794;SDS011;51430;52.242;21.118;2024-02-16T08:20:20;20.90;;;12.10;;
33794;SDS011;51430;52.242;21.118;2024-02-16T08:22:54;17.50;;;11.30;;
33794;SDS011;51430;52.242;21.118;2024-02-16T08:25:22;14.40;;;11.40;;
33794;SDS011;51430;52.242;21.118;2024-02-16T08:27:53;15.70;;;11.30;;
33794;SDS011;51430;52.242;21.118;2024-02-16T08:30:25;15.10;;;11.40;;
33794;SDS011;51430;52.242;21.118;2024-02-16T08:32:53;18.40;;;12.10;;
33794;SDS011;51430;52.242;21.118;2024-02-16T08:35:22;17.20;;;11.30;;
33794;SDS011;51430;52.242;21.118;2024-02-16T08:37:52;15.40;;;10.90;;
33794;SDS011;51430;52.242;21.118;2024-02-16T08:42:35;13.60;;;10.00;;
33794;SDS011;51430;52.242;21.118;2024-02-16T08:45:03;15.10;;;11.20;;
33794;SDS011;51430;52.242;21.118;2024-02-16T08:47:33;15.10;;;11.20;;
33794;SDS011;51430;52.242;21.118;2024-02-16T08:50:01;19.70;;;11.80;;
33794;SDS011;51430;52.242;21.118;2024-02-16T08:52:32;17.70;;;11.40;;
33794;SDS011;51430;52.242;21.118;2024-02-16T08:55:02;15.60;;;11.60;;
33794;SDS011;51430;52.242;21.118;2024-02-16T08:57:33;17.00;;;11.60;;
33794;SDS011;51430;52.242;21.118;2024-02-16T09:00:02;16.50;;;10.80;;
33794;SDS011;51430;52.242;21.118;2024-02-16T09:02:33;16.80;;;11.10;;
33794;SDS011;51430;52.242;21.118;2024-02-16T09:05:01;12.60;;;10.40;;
33794;SDS011;51430;52.242;21.118;2024-02-16T09:07:31;14.30;;;10.30;;
33794;SDS011;51430;52.242;21.118;2024-02-16T09:09:59;12.90;;;10.40;;
33794;SDS011;51430;52.242;21.118;2024-02-16T09:12:28;13.60;;;11.00;;
33794;SDS011;51430;52.242;21.118;2024-02-16T09:14:56;16.30;;;10.40;;
33794;SDS011;51430;52.242;21.118;2024-02-16T09:17:24;12.10;;;10.60;;
33794;SDS011;51430;52.242;21.118;2024-02-16T09:19:52;14.60;;;10.30;;
33794;SDS011;51430;52.242;21.118;2024-02-16T09:22:20;13.40;;;10.00;;
33794;SDS011;51430;52.242;21.118;2024-02-16T09:25:05;11.50;;;9.90;;
33794;SDS011;51430;52.242;21.118;2024-02-16T09:27:35;14.50;;;10.50;;
33794;SDS011;51430;52.242;21.118;2024-02-16T09:30:08;13.90;;;10.10;;
33794;SDS011;51430;52.242;21.118;2024-02-16T09:32:39;13.60;;;10.00;;
33794;SDS011;51430;52.242;21.118;2024-02-16T09:35:08;13.10;;;10.50;;
33794;SDS011;51430;52.242;21.118;2024-02-16T09:37:38;13.30;;;10.50;;
33794;SDS011;51430;52.242;21.118;2024-02-16T09:40:08;13.70;;;10.40;;
33794;SDS011;51430;52.242;21.118;2024-02-16T09:42:39;13.70;;;9.50;;
33794;SDS011;51430;52.242;21.118;2024-02-16T09:45:08;12.80;;;9.50;;
33794;SDS011;51430;52.242;21.118;2024-02-16T09:47:40;15.50;;;9.90;;
33794;SDS011;51430;52.242;21.118;2024-02-16T09:50:21;12.60;;;9.20;;
33794;SDS011;51430;52.242;21.118;2024-02-16T09:52:49;11.70;;;9.20;;
33794;SDS011;51430;52.242;21.118;2024-02-16T09:55:18;13.10;;;9.40;;
33794;SDS011;51430;52.242;21.118;2024-02-16T09:57:46;12.70;;;9.30;;
33794;SDS011;51430;52.242;21.118;2024-02-16T10:00:14;12.60;;;9.40;;
33794;SDS011;51430;52.242;21.118;2024-02-16T10:02:43;11.60;;;9.10;;
33794;SDS011;51430;52.242;21.118;2024-02-16T10:05:15;14.50;;;9.00;;
33794;SDS011;51430;52.242;21.118;2024-02-16T10:07:47;11.50;;;8.90;;
33794;SDS011;51430;52.242;21.118;2024-02-16T10:10:27;12.30;;;9.20;;
33794;SDS011;51430;52.242;21.118;2024-02-16T10:13:01;11.30;;;8.80;;
33794;SDS011;51430;52.242;21.118;2024-02-16T10:15:31;10.70;;;8.70;;
33794;SDS011;51430;52.242;21.118;2024-02-16T10:18:04;11.70;;;9.20;;
33794;SDS011;51430;52.242;21.118;2024-02-16T10:20:34;13.10;;;8.80;;
33794;SDS011;51430;52.242;21.118;2024-02-16T10:23:03;12.70;;;9.10;;
33794;SDS011;51430;52.242;21.118;2024-02-16T10:25:36;9.80;;;8.30;;
33794;SDS011;51430;52.242;21.118;2024-02-16T10:28:09;12.50;;;8.90;;
33794;SDS011;51430;52.242;21.118;2024-02-16T10:30:41;10.70;;;8.60;;
33794;SDS011;51430;52.242;21.118;2024-02-16T10:33:13;10.60;;;9.00;;
33794;SDS011;51430;52.242;21.118;2024-02-16T10:35:41;10.80;;;9.00;;
33794;SDS011;51430;52.242;21.118;2024-02-16T10:38:12;12.90;;;9.20;;
33794;SDS011;51430;52.242;21.118;2024-02-16T10:40:41;10.30;;;8.70;;
33794;SDS011;51430;52.242;21.118;2024-02-16T10:43:09;12.00;;;8.90;;
33794;SDS011;51430;52.242;21.118;2024-02-16T10:45:38;9.80;;;8.60;;
33794;SDS011;51430;52.242;21.118;2024-02-16T10:48:07;10.00;;;8.20;;
33794;SDS011;51430;52.242;21.118;2024-02-16T10:50:36;11.00;;;8.80;;
33794;SDS011;51430;52.242;21.118;2024-02-16T10:53:48;10.90;;;8.70;;
33794;SDS011;51430;52.242;21.118;2024-02-16T10:55:58;12.50;;;9.30;;
33794;SDS011;51430;52.242;21.118;2024-02-16T10:58:27;10.40;;;8.60;;
33794;SDS011;51430;52.242;21.118;2024-02-16T11:00:57;11.80;;;8.80;;
33794;SDS011;51430;52.242;21.118;2024-02-16T11:03:26;13.80;;;9.10;;
33794;SDS011;51430;52.242;21.118;2024-02-16T11:05:57;10.90;;;8.50;;
33794;SDS011;51430;52.242;21.118;2024-02-16T11:08:26;11.00;;;8.40;;
33794;SDS011;51430;52.242;21.118;2024-02-16T11:10:57;12.00;;;8.60;;
33794;SDS011;51430;52.242;21.118;2024-02-16T11:13:27;11.30;;;8.90;;
33794;SDS011;51430;52.242;21.118;2024-02-16T11:16:02;10.80;;;9.00;;
33794;SDS011;51430;52.242;21.118;2024-02-16T11:18:41;11.50;;;9.30;;
33794;SDS011;51430;52.242;21.118;2024-02-16T11:21:18;12.70;;;9.10;;
33794;SDS011;51430;52.242;21.118;2024-02-16T11:23:45;12.60;;;8.70;;
33794;SDS011;51430;52.242;21.118;2024-02-16T11:26:14;11.30;;;9.00;;
33794;SDS011;51430;52.242;21.118;2024-02-16T11:28:45;13.00;;;9.30;;
33794;SDS011;51430;52.242;21.118;2024-02-16T11:31:13;10.20;;;9.10;;
33794;SDS011;51430;52.242;21.118;2024-02-16T11:33:44;11.30;;;9.10;;
33794;SDS011;51430;52.242;21.118;2024-02-16T11:36:13;11.10;;;9.20;;
33794;SDS011;51430;52.242;21.118;2024-02-16T11:38:41;11.50;;;9.40;;
33794;SDS011;51430;52.242;21.118;2024-02-16T11:41:09;11.80;;;9.50;;
33794;SDS011;51430;52.242;21.118;2024-02-16T11:43:37;10.30;;;9.00;;
33794;SDS011;51430;52.242;21.118;2024-02-16T11:46:12;11.60;;;9.50;;
33794;SDS011;51430;52.242;21.118;2024-02-16T11:48:45;11.30;;;9.00;;
33794;SDS011;51430;52.242;21.118;2024-02-16T11:51:18;16.70;;;9.80;;
33794;SDS011;51430;52.242;21.118;2024-02-16T11:53:54;20.20;;;10.50;;
33794;SDS011;51430;52.242;21.118;2024-02-16T11:56:24;11.30;;;9.50;;
33794;SDS011;51430;52.242;21.118;2024-02-16T11:58:53;13.00;;;9.70;;
33794;SDS011;51430;52.242;21.118;2024-02-16T12:01:22;12.30;;;9.80;;
33794;SDS011;51430;52.242;21.118;2024-02-16T12:03:50;10.60;;;9.00;;
33794;SDS011;51430;52.242;21.118;2024-02-16T12:06:21;11.90;;;9.30;;
33794;SDS011;51430;52.242;21.118;2024-02-16T12:08:50;12.00;;;9.80;;
33794;SDS011;51430;52.242;21.118;2024-02-16T12:11:20;12.90;;;9.60;;
33794;SDS011;51430;52.242;21.118;2024-02-16T12:13:48;18.80;;;10.00;;
33794;SDS011;51430;52.242;21.118;2024-02-16T12:16:18;17.00;;;10.20;;
33794;SDS011;51430;52.242;21.118;2024-02-16T12:18:46;12.00;;;9.90;;
33794;SDS011;51430;52.242;21.118;2024-02-16T12:28:45;10.50;;;8.60;;
33794;SDS011;51430;52.242;21.118;2024-02-16T12:31:17;11.70;;;9.30;;
33794;SDS011;51430;52.242;21.118;2024-02-16T12:33:46;10.50;;;8.60;;
33794;SDS011;51430;52.242;21.118;2024-02-16T12:36:15;10.50;;;8.30;;
33794;SDS011;51430;52.242;21.118;2024-02-16T12:38:45;9.40;;;8.30;;
33794;SDS011;51430;52.242;21.118;2024-02-16T12:41:13;10.90;;;8.40;;
33794;SDS011;51430;52.242;21.118;2024-02-16T12:43:41;10.40;;;8.50;;
33794;SDS011;51430;52.242;21.118;2024-02-16T12:46:09;12.80;;;9.20;;
33794;SDS011;51430;52.242;21.118;2024-02-16T12:48:37;19.80;;;9.80;;
33794;SDS011;51430;52.242;21.118;2024-02-16T12:51:05;18.30;;;9.50;;
33794;SDS011;51430;52.242;21.118;2024-02-16T12:53:34;12.10;;;9.40;;
33794;SDS011;51430;52.242;21.118;2024-02-16T12:56:08;10.60;;;9.10;;
33794;SDS011;51430;52.242;21.118;2024-02-16T12:58:38;12.10;;;9.70;;
33794;SDS011;51430;52.242;21.118;2024-02-16T13:01:06;14.50;;;9.40;;
33794;SDS011;51430;52.242;21.118;2024-02-16T13:03:46;11.90;;;9.50;;
33794;SDS011;51430;52.242;21.118;2024-02-16T13:06:14;17.00;;;9.60;;
33794;SDS011;51430;52.242;21.118;2024-02-16T13:08:43;13.10;;;9.10;;
33794;SDS011;51430;52.242;21.118;2024-02-16T13:11:11;13.70;;;9.50;;
33794;SDS011;51430;52.242;21.118;2024-02-16T13:13:40;15.10;;;9.70;;
33794;SDS011;51430;52.242;21.118;2024-02-16T13:16:08;10.50;;;9.30;;
33794;SDS011;51430;52.242;21.118;2024-02-16T13:18:36;13.70;;;9.10;;
33794;SDS011;51430;52.242;21.118;2024-02-16T13:21:04;12.60;;;9.40;;
33794;SDS011;51430;52.242;21.118;2024-02-16T13:23:32;15.10;;;9.70;;
33794;SDS011;51430;52.242;21.118;2024-02-16T13:26:01;13.90;;;9.30;;
33794;SDS011;51430;52.242;21.118;2024-02-16T13:28:29;12.70;;;9.40;;
33794;SDS011;51430;52.242;21.118;2024-02-16T13:30:57;14.90;;;9.70;;
33794;SDS011;51430;52.242;21.118;2024-02-16T13:33:27;13.70;;;9.10;;
33794;SDS011;51430;52.242;21.118;2024-02-16T13:35:55;11.50;;;8.80;;
33794;SDS011;51430;52.242;21.118;2024-02-16T13:45:04;9.40;;;7.40;;
33794;SDS011;51430;52.242;21.118;2024-02-16T13:47:39;10.00;;;7.80;;
33794;SDS011;51430;52.242;21.118;2024-02-16T13:50:09;9.50;;;7.50;;
33794;SDS011;51430;52.242;21.118;2024-02-16T13:52:37;11.10;;;7.80;;
33794;SDS011;51430;52.242;21.118;2024-02-16T13:55:07;11.30;;;7.50;;
33794;SDS011;51430;52.242;21.118;2024-02-16T13:57:36;12.90;;;8.10;;
33794;SDS011;51430;52.242;21.118;2024-02-16T14:00:06;10.40;;;7.70;;
33794;SDS011;51430;52.242;21.118;2024-02-16T14:02:35;9.70;;;7.30;;
33794;SDS011;51430;52.242;21.118;2024-02-16T14:05:03;9.50;;;8.20;;
33794;SDS011;51430;52.242;21.118;2024-02-16T14:07:31;9.90;;;7.80;;
33794;SDS011;51430;52.242;21.118;2024-02-16T14:10:09;8.60;;;7.60;;
33794;SDS011;51430;52.242;21.118;2024-02-16T14:12:39;10.90;;;8.00;;
33794;SDS011;51430;52.242;21.118;2024-02-16T14:15:09;10.70;;;7.60;;
33794;SDS011;51430;52.242;21.118;2024-02-16T14:17:44;14.20;;;11.40;;
33794;SDS011;51430;52.242;21.118;2024-02-16T14:20:12;10.20;;;8.90;;
33794;SDS011;51430;52.242;21.118;2024-02-16T14:22:40;10.80;;;7.30;;
33794;SDS011;51430;52.242;21.118;2024-02-16T14:25:10;8.50;;;7.30;;
33794;SDS011;51430;52.242;21.118;2024-02-16T14:27:41;9.50;;;7.30;;
33794;SDS011;51430;52.242;21.118;2024-02-16T14:30:12;8.90;;;7.50;;
33794;SDS011;51430;52.242;21.118;2024-02-16T14:32:41;9.90;;;7.30;;
33794;SDS011;51430;52.242;21.118;2024-02-16T14:35:09;10.40;;;7.40;;
33794;SDS011;51430;52.242;21.118;2024-02-16T14:37:38;8.00;;;7.10;;
33794;SDS011;51430;52.242;21.118;2024-02-16T14:40:08;11.80;;;7.50;;
33794;SDS011;51430;52.242;21.118;2024-02-16T14:42:38;12.70;;;8.30;;
33794;SDS011;51430;52.242;21.118;2024-02-16T14:45:07;17.70;;;13.30;;
33794;SDS011;51430;52.242;21.118;2024-02-16T14:47:37;12.90;;;8.70;;